Terminal Aerodrome Forecast
Issued by NWS

Home | Current Version | Previous Version | Text Only | Print | Product List | Glossary On
Versions: 1 2 3 4 5 6 7 8 9 10 11 12 13 14 15 16 17 18 19 20
687
FTAK31 PAJN 101737
TAFAWG
TAF
PAWG 101737Z 1018/1118 09005KT P6SM VCSH FEW005 BKN040 OVC060
     FM102200 09010KT P6SM -RA SCT010 SCT025 OVC040 WS020/14030KT
     FM110100 13010G18KT 4SM -RA BR OVC025 WS020/14030KT
     FM110900 14010KT P6SM -SHRA OVC040=

USA.gov is the U.S. government's official web portal to all federal, state and local government web resources and services.